Time;durP1;ratioP1;P1;durP2;ratioP2;P2;SDS_P1;SDS_P2;PMS_P1;PMS_P2;Temp;Humidity;BMP_temperature;BMP_pressure;BME280_temperature;BME280_humidity;BME280_pressure;Samples;Min_cycle;Max_cycle;Signal;HPM_P1;HPM_P2
2022/07/07 00:00:00;;;;;;;13.00;3.90;;;17.20;99.90;;;;;;5112331;28;20159;-62
2022/07/07 00:02:26;;;;;;;13.65;3.90;;;17.20;99.90;;;;;;5098872;28;20172;-62
2022/07/07 00:04:52;;;;;;;12.63;4.50;;;17.20;99.90;;;;;;5106067;28;20171;-63
2022/07/07 00:07:19;;;;;;;15.43;4.78;;;17.20;99.90;;;;;;5106927;28;20175;-63
2022/07/07 00:09:45;;;;;;;16.90;5.07;;;17.10;99.90;;;;;;5097544;28;20171;-64
2022/07/07 00:12:11;;;;;;;12.18;4.05;;;17.10;99.90;;;;;;5098883;28;20630;-63
2022/07/07 00:14:37;;;;;;;15.15;4.53;;;16.90;99.90;;;;;;5112978;28;20191;-63
2022/07/07 00:17:03;;;;;;;12.18;4.03;;;17.00;99.90;;;;;;5100496;28;20218;-63
2022/07/07 00:19:29;;;;;;;14.90;4.47;;;17.00;99.90;;;;;;5096903;28;20245;-63
2022/07/07 00:21:54;;;;;;;12.50;3.85;;;17.00;99.90;;;;;;5097068;28;20164;-63
2022/07/07 00:24:20;;;;;;;11.27;3.85;;;17.00;99.90;;;;;;5092821;28;20175;-63
2022/07/07 00:26:46;;;;;;;11.98;3.95;;;17.10;99.90;;;;;;5093080;28;20179;-63
2022/07/07 00:29:12;;;;;;;12.45;3.20;;;17.10;99.90;;;;;;5093020;28;20260;-63
2022/07/07 00:31:38;;;;;;;9.73;3.50;;;;;;;;;;5093582;28;20199;-63
2022/07/07 00:34:04;;;;;;;8.65;3.20;;;17.20;99.90;;;;;;5113421;28;20553;-63
2022/07/07 00:36:30;;;;;;;12.88;3.78;;;17.30;99.90;;;;;;5101216;28;20716;-63
2022/07/07 00:38:55;;;;;;;11.13;3.40;;;17.30;99.90;;;;;;5093182;28;20183;-63
2022/07/07 00:41:21;;;;;;;15.15;3.00;;;17.40;99.90;;;;;;5092257;28;20259;-63
2022/07/07 00:43:47;;;;;;;9.27;3.05;;;17.50;99.90;;;;;;5111348;28;20175;-63
2022/07/07 00:46:13;;;;;;;12.57;3.55;;;17.50;99.90;;;;;;5112491;28;20604;-64
2022/07/07 00:48:40;;;;;;;10.50;3.22;;;17.60;99.90;;;;;;5112483;28;20167;-63
2022/07/07 00:51:08;;;;;;;11.15;3.65;;;17.60;99.90;;;;;;5112300;28;20201;-63
2022/07/07 00:53:34;;;;;;;10.82;3.58;;;17.70;99.90;;;;;;5094577;28;20187;-62
2022/07/07 00:56:00;;;;;;;14.20;4.03;;;17.70;99.90;;;;;;5090222;28;20700;-62
2022/07/07 00:58:26;;;;;;;11.48;3.80;;;17.70;99.90;;;;;;5091376;28;20171;-62
2022/07/07 01:00:52;;;;;;;14.00;3.58;;;17.70;99.90;;;;;;5092572;28;20197;-63
2022/07/07 01:03:18;;;;;;;15.02;3.75;;;17.80;99.90;;;;;;5106303;28;21023;-63
2022/07/07 01:05:48;;;;;;;12.82;3.92;;;17.80;99.90;;;;;;5109335;28;20179;-62
2022/07/07 01:08:15;;;;;;;12.55;3.63;;;17.80;99.90;;;;;;5093533;28;20752;-62
2022/07/07 01:10:42;;;;;;;10.90;3.45;;;17.90;99.90;;;;;;5091105;28;20172;-63
2022/07/07 01:13:08;;;;;;;10.15;3.45;;;17.90;99.90;;;;;;5104011;28;20187;-65
2022/07/07 01:15:34;;;;;;;9.98;3.33;;;17.80;99.90;;;;;;5111177;28;20207;-63
2022/07/07 01:17:59;;;;;;;9.30;2.97;;;17.80;99.90;;;;;;5110835;28;20198;-64
2022/07/07 01:20:26;;;;;;;11.35;3.33;;;17.80;99.90;;;;;;5111020;28;20694;-63
2022/07/07 01:22:54;;;;;;;13.68;3.35;;;17.90;99.90;;;;;;5100650;28;20172;-64
2022/07/07 01:25:21;;;;;;;12.98;3.10;;;17.90;99.90;;;;;;5090796;28;20172;-63
2022/07/07 01:27:47;;;;;;;10.30;3.00;;;17.90;99.90;;;;;;5096825;28;20178;-63
2022/07/07 01:30:13;;;;;;;10.93;2.83;;;17.90;99.90;;;;;;5111120;28;20207;-62
2022/07/07 01:32:39;;;;;;;9.38;2.88;;;17.90;99.90;;;;;;5108826;28;20565;-63
2022/07/07 01:35:06;;;;;;;13.40;2.88;;;17.90;99.90;;;;;;5110652;28;20202;-62
2022/07/07 01:37:33;;;;;;;12.82;3.03;;;17.90;99.90;;;;;;5108993;28;20237;-62
2022/07/07 01:40:00;;;;;;;6.82;2.70;;;17.90;99.90;;;;;;5093776;28;20252;-62
2022/07/07 01:42:26;;;;;;;13.63;3.17;;;17.90;99.90;;;;;;5100401;28;20719;-62
2022/07/07 01:44:52;;;;;;;8.25;2.75;;;17.80;99.90;;;;;;5090557;28;20179;-61
2022/07/07 01:47:20;;;;;;;12.32;2.83;;;17.80;99.90;;;;;;5090560;28;20172;-62
2022/07/07 01:49:47;;;;;;;9.85;3.25;;;17.70;99.90;;;;;;5090650;28;20225;-62
2022/07/07 01:52:13;;;;;;;7.28;2.42;;;17.60;99.90;;;;;;5097356;28;20262;-62
2022/07/07 01:54:39;;;;;;;8.23;2.50;;;17.60;99.90;;;;;;5114902;28;20194;-62
2022/07/07 01:57:06;;;;;;;8.73;2.60;;;17.60;99.90;;;;;;5114893;28;20201;-62
2022/07/07 01:59:33;;;;;;;10.07;2.28;;;17.50;99.90;;;;;;5112819;28;20172;-62
2022/07/07 02:01:58;;;;;;;5.10;2.28;;;17.40;99.90;;;;;;5112187;28;20232;-61
2022/07/07 02:04:24;;;;;;;6.88;2.33;;;17.30;99.90;;;;;;5110745;28;20171;-62
2022/07/07 02:06:50;;;;;;;6.53;2.03;;;17.20;99.90;;;;;;5106325;28;20259;-62
2022/07/07 02:09:16;;;;;;;8.00;2.30;;;17.20;99.90;;;;;;5103601;28;20178;-62
2022/07/07 02:11:42;;;;;;;6.82;2.95;;;17.10;99.90;;;;;;5106588;28;20172;-62
2022/07/07 02:14:08;;;;;;;10.32;3.00;;;17.10;99.90;;;;;;5112717;28;20656;-61
2022/07/07 02:16:34;;;;;;;8.07;2.65;;;17.00;99.90;;;;;;5109950;28;20207;-61
2022/07/07 02:19:04;;;;;;;11.32;2.80;;;17.00;99.90;;;;;;5098207;28;20227;-62
2022/07/07 02:21:30;;;;;;;9.55;3.20;;;17.00;99.90;;;;;;5114280;28;20211;-63
2022/07/07 02:23:57;;;;;;;12.60;3.10;;;16.90;99.90;;;;;;5095188;28;20191;-61
2022/07/07 02:26:23;;;;;;;15.40;3.95;;;16.90;99.90;;;;;;5109246;28;20176;-61
2022/07/07 02:28:49;;;;;;;9.50;3.03;;;16.80;99.90;;;;;;5093437;28;20168;-62
2022/07/07 02:31:15;;;;;;;7.90;2.38;;;16.80;99.90;;;;;;5093816;28;20221;-62
2022/07/07 02:33:41;;;;;;;7.63;2.47;;;16.70;99.90;;;;;;5093560;28;20259;-61
2022/07/07 02:36:08;;;;;;;8.40;2.65;;;16.50;99.90;;;;;;5093435;28;20708;-61
2022/07/07 02:38:35;;;;;;;9.95;2.67;;;16.60;99.90;;;;;;5098663;28;20211;-61
2022/07/07 02:41:01;;;;;;;13.43;2.45;;;16.50;99.90;;;;;;5112493;28;20258;-61
2022/07/07 02:43:27;;;;;;;6.43;2.25;;;16.60;99.90;;;;;;5106248;28;20258;-61
2022/07/07 02:45:53;;;;;;;8.60;2.35;;;16.70;99.90;;;;;;5113742;28;20189;-61
2022/07/07 02:48:24;;;;;;;14.27;2.42;;;16.70;99.90;;;;;;5103091;28;20200;-61
2022/07/07 02:50:51;;;;;;;5.85;2.00;;;16.80;99.90;;;;;;5094447;28;20178;-61
2022/07/07 02:53:18;;;;;;;6.47;2.33;;;16.90;99.90;;;;;;5104834;28;20171;-62
2022/07/07 02:55:45;;;;;;;4.05;1.77;;;17.00;99.90;;;;;;5113346;28;20286;-61
2022/07/07 02:58:12;;;;;;;5.03;1.88;;;17.00;99.90;;;;;;5113702;28;20171;-61
2022/07/07 03:00:38;;;;;;;3.42;1.60;;;17.00;99.90;;;;;;5111985;28;20175;-62
2022/07/07 03:03:06;;;;;;;4.30;1.58;;;16.90;99.90;;;;;;5103728;27;20179;-61
2022/07/07 03:05:32;;;;;;;5.03;1.67;;;17.00;99.90;;;;;;5093045;28;20171;-62
2022/07/07 03:07:58;;;;;;;3.97;1.30;;;17.00;99.90;;;;;;5091638;28;20172;-62
2022/07/07 03:10:25;;;;;;;6.55;1.65;;;17.00;99.90;;;;;;5110972;28;20222;-62
2022/07/07 03:12:51;;;;;;;5.50;1.55;;;17.00;99.90;;;;;;5105760;28;20175;-62
2022/07/07 03:15:17;;;;;;;5.43;1.38;;;17.00;99.90;;;;;;5092525;28;20282;-62
2022/07/07 03:17:44;;;;;;;3.40;0.98;;;16.90;99.90;;;;;;5093097;28;20176;-62
2022/07/07 03:20:12;;;;;;;2.53;0.85;;;16.90;99.90;;;;;;5092616;28;20608;-62
2022/07/07 03:22:42;;;;;;;6.05;1.02;;;16.80;99.90;;;;;;5097526;28;20179;-61
2022/07/07 03:25:08;;;;;;;4.95;0.80;;;16.80;99.90;;;;;;5112571;28;20171;-60
2022/07/07 03:27:35;;;;;;;3.38;1.00;;;16.80;99.90;;;;;;5111072;28;20183;-61
2022/07/07 03:30:03;;;;;;;3.92;1.20;;;16.90;99.90;;;;;;5113839;28;20236;-61
2022/07/07 03:32:29;;;;;;;1.95;0.80;;;17.00;99.90;;;;;;5111193;28;20172;-61
2022/07/07 03:34:55;;;;;;;3.17;1.13;;;17.00;99.90;;;;;;5093569;28;20208;-61
2022/07/07 03:37:21;;;;;;;2.70;0.88;;;17.10;99.90;;;;;;5092415;28;20240;-60
2022/07/07 03:39:46;;;;;;;2.83;1.00;;;17.10;99.90;;;;;;5092341;28;20649;-60
2022/07/07 03:42:12;;;;;;;2.10;0.80;;;17.20;99.90;;;;;;5092316;28;20664;-60
2022/07/07 03:44:38;;;;;;;2.88;0.90;;;17.20;99.90;;;;;;5092363;28;20480;-61
2022/07/07 03:47:04;;;;;;;2.60;1.02;;;17.20;99.90;;;;;;5093527;28;20243;-60
2022/07/07 03:49:30;;;;;;;2.05;0.70;;;17.20;99.90;;;;;;5111820;28;20181;-61
2022/07/07 03:51:57;;;;;;;1.90;0.70;;;17.20;99.90;;;;;;5113723;27;20167;-61
2022/07/07 03:54:23;;;;;;;1.60;0.60;;;17.30;99.90;;;;;;5092794;28;20174;-61
2022/07/07 03:56:49;;;;;;;3.05;0.90;;;17.30;99.90;;;;;;5092220;28;20311;-60
2022/07/07 03:59:14;;;;;;;1.75;1.10;;;17.30;99.90;;;;;;5092178;28;20243;-61
2022/07/07 04:01:44;;;;;;;2.95;0.88;;;17.30;99.90;;;;;;5097636;28;20186;-61
2022/07/07 04:04:11;;;;;;;4.68;0.80;;;17.40;99.90;;;;;;5109883;28;20693;-61
2022/07/07 04:06:37;;;;;;;5.22;0.70;;;17.30;99.90;;;;;;5112397;28;20179;-61
2022/07/07 04:09:03;;;;;;;2.75;0.80;;;17.40;99.90;;;;;;5104553;28;20583;-61
2022/07/07 04:11:29;;;;;;;2.03;0.90;;;17.40;99.90;;;;;;5091865;28;20168;-62
2022/07/07 04:13:55;;;;;;;6.43;0.75;;;17.30;99.90;;;;;;5095378;28;20171;-62
2022/07/07 04:16:21;;;;;;;1.90;1.10;;;17.40;99.90;;;;;;5091583;28;20701;-62
2022/07/07 04:19:24;;;;;;;3.28;0.80;;;17.50;99.90;;;;;;5073026;22;20722;-55
2022/07/07 04:21:50;;;;;;;2.50;0.95;;;17.40;99.90;;;;;;5038984;23;20229;-56
2022/07/07 04:24:15;;;;;;;3.75;0.95;;;17.40;99.90;;;;;;5031311;28;20197;-56
2022/07/07 04:26:41;;;;;;;3.22;0.90;;;17.30;99.90;;;;;;5031585;28;20162;-55
2022/07/07 04:29:07;;;;;;;7.47;1.00;;;17.30;99.90;;;;;;5031560;28;20220;-54
2022/07/07 04:31:33;;;;;;;3.00;1.00;;;17.20;99.90;;;;;;5031329;28;20217;-54
2022/07/07 04:33:59;;;;;;;1.02;0.80;;;17.10;99.90;;;;;;5030734;28;20197;-54
2022/07/07 04:36:25;;;;;;;4.25;0.98;;;17.10;99.90;;;;;;5031195;28;20209;-55
2022/07/07 04:38:51;;;;;;;2.25;0.77;;;17.00;99.90;;;;;;5031466;28;20169;-54
2022/07/07 04:41:16;;;;;;;3.40;1.10;;;17.00;99.90;;;;;;5031337;28;20170;-55
2022/07/07 04:43:42;;;;;;;4.78;1.55;;;17.00;99.90;;;;;;5030770;28;20759;-55
2022/07/07 04:46:08;;;;;;;2.17;0.93;;;17.00;99.90;;;;;;5031062;28;20655;-54
2022/07/07 04:48:33;;;;;;;4.38;1.10;;;17.00;99.90;;;;;;5031048;28;20631;-54
2022/07/07 04:50:59;;;;;;;2.95;1.00;;;17.00;99.90;;;;;;5031137;28;20178;-55
2022/07/07 04:53:25;;;;;;;1.83;0.90;;;17.10;99.90;;;;;;5030658;28;20642;-54
2022/07/07 04:55:51;;;;;;;3.67;0.98;;;17.10;99.90;;;;;;5031156;28;20217;-55
2022/07/07 04:58:16;;;;;;;2.47;1.25;;;17.10;99.90;;;;;;5030453;28;20541;-55
2022/07/07 05:00:42;;;;;;;2.78;1.10;;;17.10;99.90;;;;;;5030943;28;20624;-55
2022/07/07 05:03:08;;;;;;;4.60;0.93;;;17.20;99.90;;;;;;5031065;28;20616;-55
2022/07/07 05:05:34;;;;;;;3.08;1.00;;;17.20;99.90;;;;;;5030355;28;20174;-55
2022/07/07 05:07:59;;;;;;;3.55;1.10;;;17.30;99.90;;;;;;5030558;28;20177;-55
2022/07/07 05:10:25;;;;;;;5.07;1.08;;;17.30;99.90;;;;;;5030975;28;20269;-58
2022/07/07 05:12:51;;;;;;;3.88;1.17;;;17.30;99.90;;;;;;5030370;28;20173;-55
2022/07/07 05:15:17;;;;;;;1.52;0.85;;;17.30;99.90;;;;;;5030771;28;20583;-55
2022/07/07 05:17:42;;;;;;;1.45;1.00;;;17.40;99.90;;;;;;5030294;28;20228;-55
2022/07/07 05:20:09;;;;;;;2.28;1.05;;;17.40;99.90;;;;;;5030280;28;20221;-55
2022/07/07 05:22:34;;;;;;;2.33;1.20;;;17.50;99.90;;;;;;5030436;28;20176;-55
2022/07/07 05:25:00;;;;;;;2.58;1.20;;;17.50;99.90;;;;;;5030514;28;20261;-55
2022/07/07 05:27:26;;;;;;;3.42;1.17;;;17.60;99.90;;;;;;5033292;28;20174;-55
2022/07/07 05:29:52;;;;;;;3.17;1.15;;;17.60;99.90;;;;;;5034718;28;20228;-55
2022/07/07 05:32:18;;;;;;;5.82;1.17;;;17.60;99.90;;;;;;5034838;28;20198;-55
2022/07/07 05:34:43;;;;;;;4.28;1.20;;;17.60;99.90;;;;;;5034120;28;20173;-54
2022/07/07 05:37:09;;;;;;;2.53;1.25;;;17.70;99.90;;;;;;5033257;28;20611;-55
2022/07/07 05:39:35;;;;;;;2.92;1.20;;;17.70;99.90;;;;;;5034400;28;20231;-55
2022/07/07 05:42:00;;;;;;;3.20;1.42;;;17.90;99.90;;;;;;5034618;28;20182;-55
2022/07/07 05:44:26;;;;;;;6.82;1.42;;;17.80;99.90;;;;;;5034629;28;20170;-55
2022/07/07 05:46:52;;;;;;;4.05;1.38;;;17.80;99.90;;;;;;5034701;28;20166;-55
2022/07/07 05:49:18;;;;;;;5.57;1.40;;;17.90;99.90;;;;;;5034015;28;20636;-55
2022/07/07 05:51:44;;;;;;;4.93;1.38;;;17.90;99.90;;;;;;5034089;28;20170;-55
2022/07/07 05:54:10;;;;;;;4.00;1.48;;;17.90;99.90;;;;;;5034416;28;20182;-55
2022/07/07 05:56:35;;;;;;;3.42;1.20;;;17.90;99.90;;;;;;5034320;28;20236;-55
2022/07/07 05:59:01;;;;;;;4.05;1.23;;;18.00;99.90;;;;;;5033802;28;20221;-55
2022/07/07 06:01:27;;;;;;;3.70;1.25;;;18.00;99.90;;;;;;5033968;28;20178;-55
2022/07/07 06:03:53;;;;;;;2.92;1.40;;;18.00;99.90;;;;;;5034103;28;20587;-55
2022/07/07 06:06:18;;;;;;;4.95;1.42;;;18.00;99.90;;;;;;5033960;28;20182;-55
2022/07/07 06:08:44;;;;;;;5.85;1.70;;;18.00;99.90;;;;;;5034259;28;20659;-56
2022/07/07 06:11:10;;;;;;;3.70;1.33;;;17.90;99.90;;;;;;5033695;28;20710;-55
2022/07/07 06:13:36;;;;;;;3.47;1.50;;;18.00;99.90;;;;;;5033706;28;20257;-55
2022/07/07 06:16:01;;;;;;;2.55;1.15;;;18.00;99.90;;;;;;5033079;28;20251;-55
2022/07/07 06:18:27;;;;;;;6.25;1.77;;;17.90;99.90;;;;;;5033663;28;20198;-55
2022/07/07 06:20:54;;;;;;;3.72;1.40;;;18.00;99.90;;;;;;5033442;28;20300;-55
2022/07/07 06:23:19;;;;;;;2.78;1.20;;;18.10;99.90;;;;;;5033365;28;20726;-55
2022/07/07 06:25:45;;;;;;;5.05;1.40;;;18.10;99.90;;;;;;5033670;28;20265;-55
2022/07/07 06:28:12;;;;;;;4.35;1.55;;;18.20;99.90;;;;;;5033416;28;20553;-55
2022/07/07 06:30:37;;;;;;;3.28;1.27;;;18.20;99.90;;;;;;5032293;28;20216;-55
2022/07/07 06:33:03;;;;;;;5.13;1.33;;;18.30;99.90;;;;;;5033042;28;20193;-56
2022/07/07 06:35:29;;;;;;;3.78;1.33;;;18.30;99.90;;;;;;5032741;28;20694;-56
2022/07/07 06:37:56;;;;;;;2.72;1.30;;;18.30;99.90;;;;;;5032901;28;20166;-55
2022/07/07 06:40:22;;;;;;;5.80;1.58;;;18.20;99.90;;;;;;5033051;28;20182;-55
2022/07/07 06:42:48;;;;;;;2.90;1.50;;;18.20;99.90;;;;;;5033468;28;20166;-56
2022/07/07 06:45:14;;;;;;;4.10;1.60;;;18.30;99.90;;;;;;5032830;28;20174;-56
2022/07/07 06:47:40;;;;;;;3.55;1.42;;;18.20;99.90;;;;;;5033458;28;20514;-56
2022/07/07 06:50:06;;;;;;;5.38;1.48;;;18.30;99.90;;;;;;5033212;28;20636;-55
2022/07/07 06:52:32;;;;;;;7.60;1.58;;;18.30;99.90;;;;;;5032866;28;20196;-59
2022/07/07 06:54:58;;;;;;;6.82;1.80;;;18.40;99.90;;;;;;5033536;28;20218;-60
2022/07/07 06:57:23;;;;;;;4.35;1.40;;;18.50;99.90;;;;;;5032937;28;20663;-59
2022/07/07 06:59:49;;;;;;;4.60;1.30;;;18.50;99.90;;;;;;5032850;28;20165;-59
2022/07/07 07:02:15;;;;;;;5.30;1.40;;;18.40;99.90;;;;;;5033238;28;20184;-59
2022/07/07 07:04:41;;;;;;;6.03;1.33;;;18.50;99.90;;;;;;5032876;28;20530;-59
2022/07/07 07:07:06;;;;;;;7.45;1.50;;;18.50;99.90;;;;;;5020991;28;20200;-59
2022/07/07 07:09:32;;;;;;;3.88;1.20;;;18.60;99.90;;;;;;5032922;28;20178;-59
2022/07/07 07:11:58;;;;;;;3.83;1.50;;;18.60;99.90;;;;;;5033408;28;20181;-58
2022/07/07 07:14:24;;;;;;;5.05;1.45;;;20.50;99.90;;;;;;5030661;28;20166;-58
2022/07/07 07:16:49;;;;;;;5.88;1.63;;;18.70;99.90;;;;;;5032585;28;20206;-58
2022/07/07 07:19:15;;;;;;;4.68;1.50;;;18.70;99.90;;;;;;5032877;28;20275;-58
2022/07/07 07:21:41;;;;;;;6.68;1.45;;;18.80;99.90;;;;;;5031945;28;20703;-57
2022/07/07 07:24:07;;;;;;;3.47;1.40;;;18.70;99.90;;;;;;5032669;28;20177;-57
2022/07/07 07:26:34;;;;;;;5.40;1.80;;;18.70;99.90;;;;;;5031102;28;20868;-58
2022/07/07 07:28:59;;;;;;;6.28;1.40;;;18.40;99.90;;;;;;5032483;28;20509;-58
2022/07/07 07:31:25;;;;;;;5.95;1.67;;;18.70;99.90;;;;;;5032620;28;20257;-58
2022/07/07 07:33:51;;;;;;;7.13;1.65;;;18.70;99.90;;;;;;5032126;28;20184;-59
2022/07/07 07:36:17;;;;;;;5.93;1.75;;;18.70;99.90;;;;;;5031909;28;20241;-61
2022/07/07 07:38:44;;;;;;;5.53;1.90;;;18.70;99.90;;;;;;5032140;28;20166;-63
2022/07/07 07:41:11;;;;;;;5.05;1.27;;;18.70;99.90;;;;;;5032318;28;20718;-63
2022/07/07 07:43:37;;;;;;;9.57;1.38;;;18.70;99.90;;;;;;5032267;28;20181;-63
2022/07/07 07:46:03;;;;;;;3.88;1.35;;;18.70;99.90;;;;;;5031655;28;20280;-62
2022/07/07 07:48:29;;;;;;;6.22;1.75;;;18.70;99.90;;;;;;5031523;28;20228;-62
2022/07/07 07:50:55;;;;;;;5.30;1.63;;;18.70;99.90;;;;;;5032181;28;20569;-61
2022/07/07 07:53:21;;;;;;;4.13;1.45;;;18.70;99.90;;;;;;5028093;28;20178;-61
2022/07/07 07:55:47;;;;;;;6.43;1.50;;;18.70;99.90;;;;;;5031782;28;20205;-57
2022/07/07 07:58:13;;;;;;;5.55;1.55;;;18.80;99.90;;;;;;5031678;28;20166;-58
2022/07/07 08:00:38;;;;;;;5.00;1.80;;;18.90;99.90;;;;;;5031571;28;20370;-58
2022/07/07 08:03:04;;;;;;;3.75;1.48;;;18.90;99.90;;;;;;5031450;28;20193;-58
2022/07/07 08:05:30;;;;;;;3.47;1.30;;;19.00;99.90;;;;;;5031848;28;20174;-58
2022/07/07 08:07:57;;;;;;;3.45;1.65;;;19.30;99.90;;;;;;5031737;28;20178;-59
2022/07/07 08:10:23;;;;;;;6.82;1.63;;;19.40;99.90;;;;;;5030653;28;20174;-58
2022/07/07 08:12:49;;;;;;;4.72;1.20;;;19.40;99.90;;;;;;5031313;28;20182;-59
2022/07/07 08:15:15;;;;;;;3.92;1.60;;;19.50;99.90;;;;;;5031912;28;20292;-59
2022/07/07 08:17:42;;;;;;;4.97;1.52;;;19.50;99.90;;;;;;5031742;28;20174;-58
2022/07/07 08:20:08;;;;;;;6.07;1.65;;;19.60;99.90;;;;;;5031416;28;20184;-59
2022/07/07 08:22:34;;;;;;;8.48;1.77;;;19.60;99.90;;;;;;5031665;28;20256;-59
2022/07/07 08:25:00;;;;;;;3.88;1.80;;;19.50;99.90;;;;;;5031659;28;20644;-58
2022/07/07 08:27:26;;;;;;;2.70;1.50;;;19.20;99.90;;;;;;5031652;28;20190;-59
2022/07/07 08:29:52;;;;;;;3.95;1.83;;;19.20;99.90;;;;;;5031541;28;20181;-58
2022/07/07 08:32:18;;;;;;;5.55;1.70;;;19.00;99.90;;;;;;5031307;28;20173;-58
2022/07/07 08:34:44;;;;;;;9.85;2.10;;;18.90;99.90;;;;;;5030981;28;20180;-59
2022/07/07 08:37:12;;;;;;;6.70;1.88;;;18.90;99.90;;;;;;5031031;28;20285;-59
2022/07/07 08:39:38;;;;;;;5.28;1.75;;;18.80;99.90;;;;;;5031314;28;20174;-59
2022/07/07 08:42:05;;;;;;;4.25;2.00;;;18.80;99.90;;;;;;5031171;28;20170;-60
2022/07/07 08:44:32;;;;;;;4.30;1.83;;;18.90;99.90;;;;;;5031205;28;20170;-59
2022/07/07 08:46:58;;;;;;;7.47;2.40;;;18.90;99.90;;;;;;5031331;28;20170;-57
2022/07/07 08:49:23;;;;;;;6.80;2.08;;;19.00;99.90;;;;;;5031105;28;20257;-59
2022/07/07 08:51:50;;;;;;;10.50;1.75;;;19.30;99.90;;;;;;5031246;28;20177;-55
2022/07/07 08:54:16;;;;;;;9.02;2.00;;;19.50;99.90;;;;;;5030882;28;20261;-55
2022/07/07 08:56:43;;;;;;;5.22;1.50;;;19.80;99.90;;;;;;5031045;28;20213;-55
2022/07/07 08:59:15;;;;;;;5.47;2.20;;;20.00;99.90;;;;;;5030612;28;20181;-56
2022/07/07 09:01:52;;;;;;;5.68;1.70;;;20.30;99.90;;;;;;5029943;28;20212;-55
2022/07/07 09:04:17;;;;;;;7.85;2.00;;;20.60;99.90;;;;;;5030686;28;20161;-59
2022/07/07 09:06:55;;;;;;;6.68;1.88;;;20.40;99.90;;;;;;5031132;28;20907;-60
2022/07/07 09:09:28;;;;;;;8.15;2.20;;;20.00;99.90;;;;;;5031006;28;20260;-61
2022/07/07 09:12:00;;;;;;;11.77;2.47;;;20.00;99.90;;;;;;5031119;28;20174;-60
2022/07/07 09:14:41;;;;;;;2.97;1.30;;;19.70;99.90;;;;;;5030862;28;20181;-60
2022/07/07 09:17:16;;;;;;;7.00;1.83;;;19.50;99.90;;;;;;5030723;28;20254;-61
2022/07/07 09:19:43;;;;;;;6.00;1.83;;;19.80;99.90;;;;;;5030528;28;20169;-60
2022/07/07 09:22:10;;;;;;;5.82;1.73;;;20.00;99.90;;;;;;5030646;28;20232;-60
2022/07/07 09:24:55;;;;;;;8.18;1.75;;;19.80;99.90;;;;;;5030823;28;20185;-61
2022/07/07 09:27:21;;;;;;;6.10;1.70;;;20.10;99.90;;;;;;5030410;28;20178;-60
2022/07/07 09:29:47;;;;;;;3.20;1.30;;;20.20;99.90;;;;;;5030547;28;20355;-61
2022/07/07 09:32:12;;;;;;;3.67;1.50;;;20.20;99.90;;;;;;5030898;28;20596;-61
2022/07/07 09:34:38;;;;;;;8.27;1.75;;;20.20;99.90;;;;;;5029202;28;20636;-61
2022/07/07 09:39:54;;;;;;;2.63;1.25;;;19.90;99.90;;;;;;5030864;28;20189;-61
2022/07/07 09:42:31;;;;;;;4.78;1.58;;;20.10;99.90;;;;;;5029737;28;20698;-61
2022/07/07 09:45:03;;;;;;;4.72;1.42;;;20.20;99.90;;;;;;5030548;28;20186;-61
2022/07/07 09:47:30;;;;;;;4.88;1.65;;;19.90;99.90;;;;;;5030385;28;20166;-61
2022/07/07 09:50:02;;;;;;;5.28;1.50;;;19.70;99.90;;;;;;5030430;28;20166;-60
2022/07/07 09:52:29;;;;;;;5.20;1.48;;;19.80;99.90;;;;;;5030524;28;20170;-60
2022/07/07 09:54:56;;;;;;;4.22;1.65;;;19.90;99.90;;;;;;5030207;28;20265;-61
2022/07/07 09:57:23;;;;;;;3.25;1.30;;;20.00;99.90;;;;;;5030422;28;20178;-60
2022/07/07 09:59:48;;;;;;;3.95;1.40;;;20.10;99.90;;;;;;5030457;28;20256;-61
2022/07/07 10:02:23;;;;;;;11.75;1.35;;;20.00;99.90;;;;;;5028553;28;20265;-61
2022/07/07 10:04:56;;;;;;;6.80;1.17;;;20.10;99.90;;;;;;5028595;28;20709;-61
2022/07/07 10:07:23;;;;;;;4.88;1.25;;;20.30;99.90;;;;;;5028274;28;20162;-61
2022/07/07 10:09:54;;;;;;;4.05;1.40;;;20.60;99.90;;;;;;5027157;28;20181;-60
2022/07/07 10:12:23;;;;;;;5.10;1.33;;;21.10;99.90;;;;;;5029192;28;20545;-61
2022/07/07 10:14:54;;;;;;;4.78;1.30;;;21.40;99.90;;;;;;5032211;28;20253;-61
2022/07/07 10:17:20;;;;;;;2.45;0.90;;;21.60;99.90;;;;;;5033976;28;20680;-61
2022/07/07 10:19:46;;;;;;;5.07;1.10;;;21.80;99.90;;;;;;5034042;28;20614;-61
2022/07/07 10:22:14;;;;;;;4.28;1.10;;;21.90;99.90;;;;;;5033737;28;20234;-61
2022/07/07 10:24:41;;;;;;;5.15;1.27;;;21.90;99.90;;;;;;5033881;28;20235;-60
2022/07/07 10:27:07;;;;;;;3.63;1.05;;;21.60;99.90;;;;;;5033884;28;20219;-61
2022/07/07 10:29:45;;;;;;;3.85;1.30;;;21.70;99.90;;;;;;5033871;28;20189;-61
2022/07/07 10:32:16;;;;;;;3.25;1.17;;;21.70;99.90;;;;;;5033699;28;20223;-61
2022/07/07 10:34:53;;;;;;;2.58;1.25;;;21.80;99.90;;;;;;5033672;28;20193;-61
2022/07/07 10:37:21;;;;;;;4.90;1.35;;;21.70;99.90;;;;;;5033746;28;20182;-61
2022/07/07 10:39:49;;;;;;;5.70;1.17;;;21.70;99.90;;;;;;5033656;28;20652;-61
2022/07/07 10:42:15;;;;;;;4.13;1.20;;;21.90;99.90;;;;;;5033082;28;20602;-61
2022/07/07 10:45:00;;;;;;;4.90;1.40;;;21.80;99.90;;;;;;5033229;28;20247;-62
2022/07/07 10:47:26;;;;;;;3.20;1.30;;;22.00;99.90;;;;;;5033447;28;20180;-61
2022/07/07 10:49:54;;;;;;;6.85;1.15;;;22.00;99.90;;;;;;5033322;28;20162;-61
2022/07/07 10:52:25;;;;;;;7.63;1.95;;;22.00;99.90;;;;;;5033446;28;20264;-61
2022/07/07 10:54:50;;;;;;;5.50;1.15;;;22.00;99.90;;;;;;5033420;28;20174;-60
2022/07/07 10:57:18;;;;;;;3.40;1.42;;;22.10;99.90;;;;;;5033455;28;20182;-61
2022/07/07 11:00:00;;;;;;;3.70;1.50;;;22.20;99.90;;;;;;5033225;28;20165;-61
2022/07/07 11:02:30;;;;;;;5.82;1.40;;;22.40;99.90;;;;;;5031362;28;20249;-61
2022/07/07 11:05:01;;;;;;;2.67;1.25;;;21.90;99.90;;;;;;5031307;28;20163;-61
2022/07/07 11:07:28;;;;;;;2.45;1.02;;;21.90;99.90;;;;;;5031483;28;20169;-60
2022/07/07 11:10:03;;;;;;;3.97;1.10;;;20.70;99.90;;;;;;5031590;28;20165;-61
2022/07/07 11:12:38;;;;;;;2.50;1.33;;;22.10;99.90;;;;;;5031608;28;20189;-61
2022/07/07 11:15:22;;;;;;;4.15;1.13;;;22.10;99.90;;;;;;5031118;28;20189;-61
2022/07/07 11:17:57;;;;;;;3.70;1.10;;;22.20;99.90;;;;;;5032801;28;20186;-61
2022/07/07 11:20:29;;;;;;;2.78;0.95;;;22.10;99.90;;;;;;5032723;28;20233;-61
2022/07/07 11:23:05;;;;;;;3.45;1.15;;;22.40;99.90;;;;;;5031466;28;20520;-61
2022/07/07 11:25:34;;;;;;;4.72;1.35;;;22.20;99.90;;;;;;5031876;28;20165;-62
2022/07/07 11:28:00;;;;;;;1.88;0.90;;;22.30;99.90;;;;;;5031321;28;20224;-61
2022/07/07 11:30:28;;;;;;;3.22;1.30;;;22.30;99.90;;;;;;5032544;28;20174;-61
2022/07/07 11:32:59;;;;;;;4.47;1.30;;;22.00;99.90;;;;;;5032670;28;20236;-61
2022/07/07 11:35:37;;;;;;;3.10;1.08;;;22.00;99.90;;;;;;5032856;28;20194;-61
2022/07/07 11:38:11;;;;;;;2.88;1.13;;;21.90;99.90;;;;;;5032646;28;20683;-61
2022/07/07 11:40:42;;;;;;;1.73;0.98;;;22.20;99.90;;;;;;5032562;28;20166;-62
2022/07/07 11:43:25;;;;;;;1.55;0.90;;;22.50;99.90;;;;;;5032465;28;20205;-61
2022/07/07 11:45:51;;;;;;;3.60;1.15;;;22.90;99.90;;;;;;5032115;28;20687;-61
2022/07/07 11:48:17;;;;;;;1.67;1.15;;;23.00;99.90;;;;;;5032001;28;20170;-61
2022/07/07 11:50:45;;;;;;;4.72;1.38;;;22.90;99.90;;;;;;5031805;28;20178;-61
2022/07/07 11:53:11;;;;;;;6.07;1.30;;;23.00;99.90;;;;;;5030371;28;20660;-61
2022/07/07 11:55:37;;;;;;;6.55;1.60;;;23.60;99.90;;;;;;5031999;28;20263;-61
2022/07/07 11:58:05;;;;;;;2.42;1.48;;;23.60;99.90;;;;;;5031873;28;20249;-62
2022/07/07 12:00:36;;;;;;;2.40;1.30;;;23.60;99.90;;;;;;5031698;28;20265;-61
2022/07/07 12:03:05;;;;;;;2.45;1.70;;;24.80;99.90;;;;;;5032088;28;20189;-61
2022/07/07 12:05:38;;;;;;;2.35;1.58;;;25.80;99.90;;;;;;5031540;28;20189;-62
2022/07/07 12:08:07;;;;;;;3.05;1.60;;;26.20;99.90;;;;;;5031264;28;20470;-62
2022/07/07 12:10:51;;;;;;;2.88;1.27;;;26.40;99.90;;;;;;5031591;28;20204;-61
2022/07/07 12:13:17;;;;;;;2.17;1.48;;;26.10;99.90;;;;;;5031590;28;20705;-62
2022/07/07 12:15:46;;;;;;;5.78;1.65;;;27.20;99.90;;;;;;5031721;28;20735;-61
2022/07/07 12:18:13;;;;;;;4.68;1.80;;;27.80;99.90;;;;;;5031639;28;20212;-62
2022/07/07 12:20:40;;;;;;;1.88;1.58;;;27.30;99.90;;;;;;5031171;28;20351;-61
2022/07/07 12:23:09;;;;;;;1.63;1.52;;;27.20;99.90;;;;;;5031504;28;21384;-60
2022/07/07 12:25:36;;;;;;;3.05;1.40;;;27.10;99.90;;;;;;5031057;28;20175;-62
2022/07/07 12:28:07;;;;;;;3.15;1.33;;;27.00;99.90;;;;;;5031835;28;20371;-61
2022/07/07 12:30:57;;;;;;;4.45;1.35;;;27.50;99.90;;;;;;5031332;28;20177;-62
2022/07/07 12:33:34;;;;;;;3.33;1.60;;;28.10;99.90;;;;;;5031413;28;20178;-62
2022/07/07 12:36:12;;;;;;;2.53;1.50;;;28.30;99.90;;;;;;5030431;28;20209;-61
2022/07/07 12:38:48;;;;;;;2.13;1.55;;;28.80;99.90;;;;;;5031380;28;20237;-62
2022/07/07 12:41:25;;;;;;;2.28;1.42;;;28.50;99.90;;;;;;5031494;28;20173;-61
2022/07/07 12:43:54;;;;;;;2.40;1.60;;;26.00;99.90;;;;;;5031383;28;20166;-62
2022/07/07 12:46:20;;;;;;;2.10;1.60;;;29.00;99.90;;;;;;5030771;28;20235;-62
2022/07/07 12:48:52;;;;;;;2.85;1.80;;;29.10;99.90;;;;;;5031565;28;20166;-62